Time;durP1;ratioP1;P1;durP2;ratioP2;P2;SDS_P1;SDS_P2;PMS_P1;PMS_P2;Temp;Humidity;BMP_temperature;BMP_pressure;BME280_temperature;BME280_humidity;BME280_pressure;Samples;Min_cycle;Max_cycle;Signal;HPM_P1;HPM_P2
2021/08/29 00:01:32;;;;;;;;;;;22.50;64.50;;;;;;5017517;28;87051;-45
2021/08/29 00:03:57;;;;;;;;;;;22.50;64.70;;;;;;5016684;28;88031;-45
2021/08/29 00:06:23;;;;;;;;;;;22.50;64.60;;;;;;5018339;28;87114;-45
2021/08/29 00:08:48;;;;;;;;;;;22.50;64.60;;;;;;5018880;28;88102;-45
2021/08/29 00:11:14;;;;;;;;;;;22.50;64.70;;;;;;5019735;28;88094;-45
2021/08/29 00:13:39;;;;;;;;;;;22.50;64.90;;;;;;5020237;28;87127;-45
2021/08/29 00:16:05;;;;;;;;;;;22.40;64.70;;;;;;5019951;28;87198;-45
2021/08/29 00:18:30;;;;;;;;;;;22.40;64.60;;;;;;5021400;28;89681;-46
2021/08/29 00:20:56;;;;;;;;;;;22.40;64.80;;;;;;5019022;28;87149;-45
2021/08/29 00:23:21;;;;;;;;;;;22.40;64.70;;;;;;5019764;28;89465;-45
2021/08/29 00:25:47;;;;;;;;;;;22.40;64.60;;;;;;5021062;28;87834;-45
2021/08/29 00:28:12;;;;;;;;;;;22.40;64.80;;;;;;5017261;28;88669;-47
2021/08/29 00:30:38;;;;;;;;;;;22.40;64.80;;;;;;5017404;28;88837;-45
2021/08/29 00:33:03;;;;;;;;;;;22.40;64.80;;;;;;5016980;28;88048;-45
2021/08/29 00:35:30;;;;;;;;;;;22.40;64.90;;;;;;5017082;28;88473;-46
2021/08/29 00:37:55;;;;;;;;;;;22.30;64.80;;;;;;5015902;28;87121;-45
2021/08/29 00:40:21;;;;;;;;;;;22.30;64.80;;;;;;5020254;28;87092;-46
2021/08/29 00:42:47;;;;;;;;;;;22.30;64.80;;;;;;5017785;28;88115;-46
2021/08/29 00:45:14;;;;;;;;;;;22.30;64.80;;;;;;5018342;28;87342;-45
2021/08/29 00:47:39;;;;;;;;;;;22.30;64.90;;;;;;5019737;28;87303;-45
2021/08/29 00:50:05;;;;;;;;;;;22.30;64.80;;;;;;5017836;28;86836;-45
2021/08/29 00:52:34;;;;;;;;;;;22.30;65.00;;;;;;5017579;28;87214;-45
2021/08/29 00:54:59;;;;;;;;;;;22.30;64.90;;;;;;5018059;28;87142;-46
2021/08/29 00:57:25;;;;;;;;;;;22.30;64.90;;;;;;5016583;28;89026;-45
2021/08/29 00:59:50;;;;;;;;;;;22.30;64.80;;;;;;5020206;28;87126;-45
2021/08/29 01:02:21;;;;;;;;;;;22.30;64.80;;;;;;5016247;28;88200;-45
2021/08/29 01:04:56;;;;;;;;;;;22.20;64.90;;;;;;5016447;28;87185;-46
2021/08/29 01:07:23;;;;;;;;;;;22.20;65.00;;;;;;5016702;28;87590;-46
2021/08/29 01:09:56;;;;;;;;;;;22.20;65.10;;;;;;5016742;28;90155;-45
2021/08/29 01:12:22;;;;;;;;;;;22.20;65.10;;;;;;5017031;28;87128;-45
2021/08/29 01:14:49;;;;;;;;;;;22.20;65.00;;;;;;5016709;28;87774;-45
2021/08/29 01:17:16;;;;;;;;;;;22.20;65.00;;;;;;5019400;28;87900;-45
2021/08/29 01:19:54;;;;;;;;;;;22.20;65.00;;;;;;5019133;28;88190;-46
2021/08/29 01:22:20;;;;;;;;;;;22.20;65.10;;;;;;5020145;28;88159;-46
2021/08/29 01:24:46;;;;;;;;;;;22.10;64.90;;;;;;5020313;28;87921;-47
2021/08/29 01:27:20;;;;;;;;;;;22.10;65.00;;;;;;5018431;28;87174;-45
2021/08/29 01:29:45;;;;;;;;;;;22.10;65.00;;;;;;5017707;28;89470;-45
2021/08/29 01:32:12;;;;;;;;;;;22.10;65.00;;;;;;5017714;28;87133;-46
2021/08/29 01:34:38;;;;;;;;;;;22.10;65.00;;;;;;5017398;28;89130;-45
2021/08/29 01:37:04;;;;;;;;;;;22.10;65.20;;;;;;5016744;28;87602;-45
2021/08/29 01:39:31;;;;;;;;;;;22.10;65.20;;;;;;5018157;28;86378;-46
2021/08/29 01:41:57;;;;;;;;;;;22.10;65.20;;;;;;5015329;28;88093;-46
2021/08/29 01:44:23;;;;;;;;;;;22.10;65.20;;;;;;5019469;28;88345;-45
2021/08/29 01:46:50;;;;;;;;;;;22.00;65.20;;;;;;5018379;28;88724;-46
2021/08/29 01:49:15;;;;;;;;;;;22.00;65.20;;;;;;5017387;28;87168;-45
2021/08/29 01:51:42;;;;;;;;;;;22.00;65.20;;;;;;5016687;28;87250;-45
2021/08/29 01:54:08;;;;;;;;;;;22.00;65.10;;;;;;5016767;28;89107;-45
2021/08/29 01:57:13;;;;;;;;;;;22.00;65.20;;;;;;5014949;28;90103;-45
2021/08/29 01:59:39;;;;;;;;;;;22.00;65.20;;;;;;4995257;28;87156;-45
2021/08/29 02:02:04;;;;;;;;;;;22.00;65.20;;;;;;5014140;28;87808;-45
2021/08/29 02:04:30;;;;;;;;;;;22.00;65.20;;;;;;5019425;28;88750;-45
2021/08/29 02:07:07;;;;;;;;;;;22.00;65.20;;;;;;5024448;28;87116;-45
2021/08/29 02:09:34;;;;;;;;;;;22.00;65.20;;;;;;5021632;28;87577;-45
2021/08/29 02:12:00;;;;;;;;;;;22.00;65.20;;;;;;5020720;28;88023;-45
2021/08/29 02:14:27;;;;;;;;;;;21.90;65.30;;;;;;5022209;28;88132;-45
2021/08/29 02:16:53;;;;;;;;;;;21.90;65.40;;;;;;5020895;28;88392;-45
2021/08/29 02:19:30;;;;;;;;;;;21.90;65.40;;;;;;5021812;28;87102;-48
2021/08/29 02:21:55;;;;;;;;;;;21.90;65.40;;;;;;5020801;28;88809;-47
2021/08/29 02:24:23;;;;;;;;;;;21.90;65.40;;;;;;5019752;28;89324;-47
2021/08/29 02:26:48;;;;;;;;;;;21.90;65.40;;;;;;5018545;28;87148;-46
2021/08/29 02:29:14;;;;;;;;;;;21.90;65.30;;;;;;5022859;28;87928;-45
2021/08/29 02:31:39;;;;;;;;;;;21.90;65.30;;;;;;5021079;28;87158;-46
2021/08/29 02:34:05;;;;;;;;;;;21.90;65.40;;;;;;5021496;28;87080;-47
2021/08/29 02:36:31;;;;;;;;;;;21.90;65.40;;;;;;5020838;28;89832;-46
2021/08/29 02:38:56;;;;;;;;;;;21.80;65.50;;;;;;5022975;28;87172;-46
2021/08/29 02:41:23;;;;;;;;;;;21.80;65.50;;;;;;5020617;28;87886;-47
2021/08/29 02:43:49;;;;;;;;;;;21.80;65.40;;;;;;5019972;28;89265;-46
2021/08/29 02:46:15;;;;;;;;;;;21.80;65.50;;;;;;5022722;28;87143;-45
2021/08/29 02:48:44;;;;;;;;;;;21.80;65.50;;;;;;5025001;28;87147;-46
2021/08/29 02:51:13;;;;;;;;;;;21.80;65.70;;;;;;5018679;28;87108;-46
2021/08/29 02:53:41;;;;;;;;;;;21.70;65.70;;;;;;5022489;28;87096;-46
2021/08/29 02:56:07;;;;;;;;;;;21.80;65.70;;;;;;5018695;28;88175;-46
2021/08/29 02:58:34;;;;;;;;;;;21.70;65.90;;;;;;5019534;28;87265;-46
2021/08/29 03:00:59;;;;;;;;;;;21.70;65.90;;;;;;5018914;28;88798;-45
2021/08/29 03:03:25;;;;;;;;;;;21.70;65.70;;;;;;5020209;28;88204;-45
2021/08/29 03:05:51;;;;;;;;;;;21.70;65.90;;;;;;5020850;28;87101;-45
2021/08/29 03:08:17;;;;;;;;;;;21.70;65.90;;;;;;5020972;28;87915;-45
2021/08/29 03:10:42;;;;;;;;;;;21.70;65.80;;;;;;5024616;28;88315;-46
2021/08/29 03:13:09;;;;;;;;;;;21.70;65.80;;;;;;5020255;28;88030;-46
2021/08/29 03:15:34;;;;;;;;;;;21.70;65.90;;;;;;5019848;28;88439;-45
2021/08/29 03:18:00;;;;;;;;;;;21.70;65.90;;;;;;5019429;28;88141;-46
2021/08/29 03:20:27;;;;;;;;;;;21.70;65.80;;;;;;5022249;28;87198;-46
2021/08/29 03:22:52;;;;;;;;;;;21.70;65.80;;;;;;5019851;28;90124;-45
2021/08/29 03:25:18;;;;;;;;;;;21.60;65.80;;;;;;5020056;28;88072;-45
2021/08/29 03:27:44;;;;;;;;;;;21.70;65.90;;;;;;5021552;28;87220;-45
2021/08/29 03:30:10;;;;;;;;;;;21.70;65.80;;;;;;5020714;28;88524;-45
2021/08/29 03:32:36;;;;;;;;;;;21.60;65.90;;;;;;5024735;28;87147;-45
2021/08/29 03:35:02;;;;;;;;;;;21.60;65.90;;;;;;5020459;28;89266;-46
2021/08/29 03:37:28;;;;;;;;;;;21.60;66.00;;;;;;5020923;28;88403;-46
2021/08/29 03:39:53;;;;;;;;;;;21.60;66.00;;;;;;5020776;28;88701;-47
2021/08/29 03:42:19;;;;;;;;;;;21.60;66.00;;;;;;5019613;28;87765;-46
2021/08/29 03:44:45;;;;;;;;;;;21.60;65.90;;;;;;5021205;28;87096;-47
2021/08/29 03:47:11;;;;;;;;;;;21.50;66.00;;;;;;5020434;28;88109;-46
2021/08/29 03:49:37;;;;;;;;;;;21.60;66.20;;;;;;5019015;28;88302;-46
2021/08/29 03:52:03;;;;;;;;;;;21.60;66.00;;;;;;5021245;28;87156;-47
2021/08/29 03:54:28;;;;;;;;;;;21.60;65.90;;;;;;5024096;28;88939;-45
2021/08/29 03:56:54;;;;;;;;;;;21.60;65.90;;;;;;5019070;28;88225;-47
2021/08/29 03:59:20;;;;;;;;;;;21.60;66.00;;;;;;5017049;28;87881;-46
2021/08/29 04:01:45;;;;;;;;;;;21.60;66.10;;;;;;5017621;28;90142;-45
2021/08/29 04:04:11;;;;;;;;;;;21.50;65.80;;;;;;5018611;28;87205;-46
2021/08/29 04:06:36;;;;;;;;;;;21.50;66.10;;;;;;5018611;28;87714;-45
2021/08/29 04:09:03;;;;;;;;;;;21.50;66.00;;;;;;5016564;28;87872;-45
2021/08/29 04:11:30;;;;;;;;;;;21.50;66.00;;;;;;5019902;28;87689;-46
2021/08/29 04:13:56;;;;;;;;;;;21.50;66.10;;;;;;5020494;28;88059;-45
2021/08/29 04:16:22;;;;;;;;;;;21.50;66.00;;;;;;5023582;28;88121;-45
2021/08/29 04:18:48;;;;;;;;;;;21.50;66.00;;;;;;5021040;28;88486;-45
2021/08/29 04:21:15;;;;;;;;;;;21.50;66.30;;;;;;5019158;28;88821;-46
2021/08/29 04:23:40;;;;;;;;;;;21.40;66.00;;;;;;5020585;28;87112;-45
2021/08/29 04:26:07;;;;;;;;;;;21.50;66.10;;;;;;5019913;28;88449;-46
2021/08/29 04:28:33;;;;;;;;;;;21.40;66.10;;;;;;5017466;28;89480;-45
2021/08/29 04:31:01;;;;;;;;;;;21.40;66.00;;;;;;5018153;28;86377;-45
2021/08/29 04:33:26;;;;;;;;;;;21.40;65.90;;;;;;5016961;28;87914;-46
2021/08/29 04:35:52;;;;;;;;;;;21.40;66.10;;;;;;5016917;28;88347;-46
2021/08/29 04:38:18;;;;;;;;;;;21.40;66.00;;;;;;5020112;28;88069;-46
2021/08/29 04:40:43;;;;;;;;;;;21.40;66.20;;;;;;5018834;28;87723;-45
2021/08/29 04:43:09;;;;;;;;;;;21.40;66.10;;;;;;5019491;28;87173;-45
2021/08/29 04:45:34;;;;;;;;;;;21.40;66.10;;;;;;5018784;28;87610;-45
2021/08/29 04:48:00;;;;;;;;;;;21.40;66.30;;;;;;5017812;28;87634;-45
2021/08/29 04:50:28;;;;;;;;;;;21.30;66.30;;;;;;5015757;28;87167;-45
2021/08/29 04:52:53;;;;;;;;;;;21.40;66.10;;;;;;5019808;28;87128;-45
2021/08/29 04:55:19;;;;;;;;;;;21.30;66.10;;;;;;5020468;28;86478;-45
2021/08/29 04:57:44;;;;;;;;;;;21.30;66.20;;;;;;5023424;28;87126;-45
2021/08/29 05:00:10;;;;;;;;;;;21.30;66.20;;;;;;5018297;28;88081;-45
2021/08/29 05:02:36;;;;;;;;;;;21.30;66.20;;;;;;5015337;28;89097;-45
2021/08/29 05:05:01;;;;;;;;;;;21.30;66.50;;;;;;5017007;28;87816;-45
2021/08/29 05:07:27;;;;;;;;;;;21.20;66.10;;;;;;5017949;28;87641;-45
2021/08/29 05:09:52;;;;;;;;;;;21.30;66.30;;;;;;5019539;28;87128;-45
2021/08/29 05:12:18;;;;;;;;;;;21.30;66.20;;;;;;5020374;28;89043;-45
2021/08/29 05:14:43;;;;;;;;;;;21.20;66.10;;;;;;5016617;28;89163;-45
2021/08/29 05:17:09;;;;;;;;;;;21.20;66.10;;;;;;5016886;28;87182;-45
2021/08/29 05:19:34;;;;;;;;;;;21.20;66.10;;;;;;5019523;28;87264;-45
2021/08/29 05:22:00;;;;;;;;;;;21.20;66.10;;;;;;5017740;28;87131;-45
2021/08/29 05:24:25;;;;;;;;;;;21.20;66.40;;;;;;5019032;28;87407;-45
2021/08/29 05:26:51;;;;;;;;;;;21.20;66.30;;;;;;5019309;28;89171;-46
2021/08/29 05:29:16;;;;;;;;;;;21.20;66.10;;;;;;5020441;28;87877;-45
2021/08/29 05:31:42;;;;;;;;;;;21.20;66.20;;;;;;5019910;28;88914;-46
2021/08/29 05:34:07;;;;;;;;;;;21.20;66.10;;;;;;5019572;28;88749;-45
2021/08/29 05:36:33;;;;;;;;;;;21.20;66.20;;;;;;5018085;28;87673;-45
2021/08/29 05:38:58;;;;;;;;;;;21.20;66.20;;;;;;5015749;28;89158;-45
2021/08/29 05:41:24;;;;;;;;;;;21.20;66.20;;;;;;5022905;28;88579;-45
2021/08/29 05:43:49;;;;;;;;;;;21.20;66.30;;;;;;5022111;28;88949;-45
2021/08/29 05:46:15;;;;;;;;;;;21.20;66.20;;;;;;5022437;28;88207;-45
2021/08/29 05:48:40;;;;;;;;;;;21.10;66.20;;;;;;5023047;28;87174;-45
2021/08/29 05:51:06;;;;;;;;;;;21.10;66.40;;;;;;5021783;28;89241;-46
2021/08/29 05:53:31;;;;;;;;;;;21.10;66.20;;;;;;5019104;28;88110;-45
2021/08/29 05:55:57;;;;;;;;;;;21.10;66.30;;;;;;5019287;28;87140;-45
2021/08/29 05:58:23;;;;;;;;;;;21.10;66.30;;;;;;5019492;28;87677;-45
2021/08/29 06:00:48;;;;;;;;;;;21.10;66.20;;;;;;5018665;28;88421;-45
2021/08/29 06:03:14;;;;;;;;;;;21.10;66.50;;;;;;5021887;28;88394;-45
2021/08/29 06:05:39;;;;;;;;;;;21.10;66.40;;;;;;5019863;28;88835;-45
2021/08/29 06:08:05;;;;;;;;;;;21.10;66.40;;;;;;5019532;28;86424;-45
2021/08/29 06:10:30;;;;;;;;;;;21.10;66.40;;;;;;5020308;28;88597;-45
2021/08/29 06:12:56;;;;;;;;;;;21.00;66.50;;;;;;5020872;28;88699;-45
2021/08/29 06:15:21;;;;;;;;;;;21.00;66.60;;;;;;5021884;28;88060;-45
2021/08/29 06:17:47;;;;;;;;;;;21.00;66.50;;;;;;5022291;28;89597;-45
2021/08/29 06:20:13;;;;;;;;;;;21.00;66.50;;;;;;5018822;28;87626;-45
2021/08/29 06:22:38;;;;;;;;;;;21.00;66.60;;;;;;5018290;28;87162;-45
2021/08/29 06:25:04;;;;;;;;;;;21.00;66.60;;;;;;5021350;28;87180;-45
2021/08/29 06:27:29;;;;;;;;;;;21.00;66.60;;;;;;5018357;28;87123;-45
2021/08/29 06:29:55;;;;;;;;;;;21.00;66.60;;;;;;5019726;28;87757;-45
2021/08/29 06:32:20;;;;;;;;;;;21.00;66.60;;;;;;5021118;28;87910;-46
2021/08/29 06:34:46;;;;;;;;;;;21.00;66.50;;;;;;5021543;28;87161;-45
2021/08/29 06:37:11;;;;;;;;;;;21.00;66.40;;;;;;5022203;28;87926;-45
2021/08/29 06:39:37;;;;;;;;;;;21.00;66.40;;;;;;5021065;28;89057;-45
2021/08/29 06:42:03;;;;;;;;;;;21.00;66.40;;;;;;5018818;28;87980;-45
2021/08/29 06:44:28;;;;;;;;;;;21.00;66.40;;;;;;5018434;28;89202;-44
2021/08/29 06:46:54;;;;;;;;;;;21.00;66.40;;;;;;5022484;28;87987;-46
2021/08/29 06:49:19;;;;;;;;;;;21.00;66.30;;;;;;5021105;28;87280;-47
2021/08/29 06:51:45;;;;;;;;;;;21.00;66.40;;;;;;5021331;28;88667;-48
2021/08/29 06:54:10;;;;;;;;;;;21.00;66.40;;;;;;5022330;28;87197;-45
2021/08/29 06:56:36;;;;;;;;;;;20.90;66.60;;;;;;5021383;28;88018;-46
2021/08/29 06:59:02;;;;;;;;;;;20.90;67.20;;;;;;5022097;28;89473;-45
2021/08/29 07:01:27;;;;;;;;;;;20.90;66.50;;;;;;5022607;28;88063;-45
2021/08/29 07:03:53;;;;;;;;;;;20.90;66.40;;;;;;5021965;28;88140;-45
2021/08/29 07:06:18;;;;;;;;;;;20.90;66.50;;;;;;5025007;28;88245;-45
2021/08/29 07:08:44;;;;;;;;;;;20.90;66.60;;;;;;5022476;28;87742;-45
2021/08/29 07:11:09;;;;;;;;;;;20.90;66.40;;;;;;5019495;28;88766;-45
2021/08/29 07:13:35;;;;;;;;;;;20.90;66.50;;;;;;5018774;28;88766;-45
2021/08/29 07:16:01;;;;;;;;;;;21.00;66.40;;;;;;5020088;28;87999;-45
2021/08/29 07:18:26;;;;;;;;;;;20.90;66.50;;;;;;5018804;28;88596;-45
2021/08/29 07:20:52;;;;;;;;;;;20.90;66.60;;;;;;5021275;28;87248;-45
2021/08/29 07:23:17;;;;;;;;;;;20.90;66.60;;;;;;5019208;28;88266;-46
2021/08/29 07:25:43;;;;;;;;;;;20.90;66.30;;;;;;5021260;28;88248;-45
2021/08/29 07:28:09;;;;;;;;;;;20.90;66.40;;;;;;5024003;28;88129;-45
2021/08/29 07:30:34;;;;;;;;;;;20.90;66.50;;;;;;5020916;28;88567;-45
2021/08/29 07:33:00;;;;;;;;;;;20.90;66.50;;;;;;5020446;28;87146;-45
2021/08/29 07:35:25;;;;;;;;;;;21.00;66.60;;;;;;5020209;28;87223;-45
2021/08/29 07:37:51;;;;;;;;;;;20.90;66.40;;;;;;5020880;28;89183;-45
2021/08/29 07:40:19;;;;;;;;;;;21.00;66.70;;;;;;5020223;28;88551;-45
2021/08/29 07:42:48;;;;;;;;;;;21.00;66.50;;;;;;5019826;28;88486;-46
2021/08/29 07:45:14;;;;;;;;;;;20.90;66.60;;;;;;5017083;28;87145;-45
2021/08/29 07:47:39;;;;;;;;;;;21.00;66.60;;;;;;5017986;28;87160;-45
2021/08/29 07:50:05;;;;;;;;;;;20.90;66.60;;;;;;5021469;28;87179;-45
2021/08/29 07:52:31;;;;;;;;;;;20.90;66.70;;;;;;5019094;28;88116;-45
2021/08/29 07:54:56;;;;;;;;;;;20.90;66.70;;;;;;5020887;28;89714;-45
2021/08/29 07:57:22;;;;;;;;;;;20.90;66.70;;;;;;5019588;28;88457;-45
2021/08/29 07:59:47;;;;;;;;;;;20.90;66.70;;;;;;5017439;28;88856;-45
2021/08/29 08:02:15;;;;;;;;;;;20.90;66.60;;;;;;5017766;28;87158;-45
2021/08/29 08:04:40;;;;;;;;;;;20.90;66.80;;;;;;5015596;28;89521;-45
2021/08/29 08:07:06;;;;;;;;;;;20.90;66.80;;;;;;5017758;28;87174;-45
2021/08/29 08:09:31;;;;;;;;;;;20.90;66.80;;;;;;5019322;28;86870;-45
2021/08/29 08:11:57;;;;;;;;;;;20.90;66.90;;;;;;5022733;28;87441;-45
2021/08/29 08:14:22;;;;;;;;;;;20.90;66.70;;;;;;5021524;28;87614;-45
2021/08/29 08:16:48;;;;;;;;;;;20.90;66.80;;;;;;5017046;28;90555;-45
2021/08/29 08:19:13;;;;;;;;;;;20.90;66.80;;;;;;5016771;28;87215;-45
2021/08/29 08:21:39;;;;;;;;;;;20.90;66.70;;;;;;5017860;28;88676;-45
2021/08/29 08:24:05;;;;;;;;;;;20.90;66.60;;;;;;5018896;28;87627;-45
2021/08/29 08:26:30;;;;;;;;;;;20.90;66.60;;;;;;5020294;28;87166;-46
2021/08/29 08:28:56;;;;;;;;;;;20.90;66.60;;;;;;5020582;28;88711;-45
2021/08/29 08:31:22;;;;;;;;;;;20.90;66.60;;;;;;5017396;28;88997;-45
2021/08/29 08:33:48;;;;;;;;;;;21.00;66.60;;;;;;5021982;28;87981;-45
2021/08/29 08:36:14;;;;;;;;;;;21.00;66.60;;;;;;5015904;28;89970;-45
2021/08/29 08:38:39;;;;;;;;;;;20.90;66.70;;;;;;5017522;28;87229;-45
2021/08/29 08:41:06;;;;;;;;;;;20.90;66.80;;;;;;5018035;28;88089;-47
2021/08/29 08:43:32;;;;;;;;;;;20.90;66.80;;;;;;5017540;28;88828;-45
2021/08/29 08:45:57;;;;;;;;;;;20.90;67.10;;;;;;5018847;28;87140;-45
2021/08/29 08:48:24;;;;;;;;;;;20.90;66.90;;;;;;5020188;28;87264;-45
2021/08/29 08:50:50;;;;;;;;;;;20.80;67.00;;;;;;5019393;28;87184;-45
2021/08/29 08:53:18;;;;;;;;;;;20.90;67.20;;;;;;5020422;28;87180;-45
2021/08/29 08:55:44;;;;;;;;;;;20.90;67.20;;;;;;5021365;28;88869;-45
2021/08/29 08:58:10;;;;;;;;;;;20.80;67.20;;;;;;5019626;28;86393;-45
2021/08/29 09:00:35;;;;;;;;;;;20.80;67.10;;;;;;5020308;28;87134;-45
2021/08/29 09:03:01;;;;;;;;;;;20.80;67.40;;;;;;5020286;28;88590;-45
2021/08/29 09:05:27;;;;;;;;;;;20.80;67.30;;;;;;5018677;28;88152;-45
2021/08/29 09:07:52;;;;;;;;;;;20.80;67.30;;;;;;5018244;28;88664;-45
2021/08/29 09:10:18;;;;;;;;;;;20.90;67.30;;;;;;5017377;28;88144;-45
2021/08/29 09:12:57;;;;;;;;;;;20.80;67.50;;;;;;5018101;28;87162;-45
2021/08/29 09:15:23;;;;;;;;;;;20.90;67.30;;;;;;5022527;28;88754;-45
2021/08/29 09:17:48;;;;;;;;;;;20.80;67.30;;;;;;5019365;28;87121;-45
2021/08/29 09:20:14;;;;;;;;;;;20.80;67.70;;;;;;5019946;28;89136;-46
2021/08/29 09:22:42;;;;;;;;;;;20.80;68.80;;;;;;5020710;28;87490;-46
2021/08/29 09:25:27;;;;;;;;;;;20.80;68.70;;;;;;5022392;28;87122;-53
2021/08/29 09:28:00;;;;;;;;;;;20.90;68.60;;;;;;5023076;28;87151;-55
2021/08/29 09:30:27;;;;;;;;;;;20.90;69.80;;;;;;5018243;28;89548;-47
2021/08/29 09:32:53;;;;;;;;;;;20.90;69.90;;;;;;5023888;28;87973;-47
2021/08/29 09:35:19;;;;;;;;;;;20.90;69.80;;;;;;5020210;28;89234;-47
2021/08/29 09:37:45;;;;;;;;;;;20.90;69.20;;;;;;5022756;28;88409;-47
2021/08/29 09:40:13;;;;;;;;;;;20.90;69.40;;;;;;5020774;28;88958;-47
2021/08/29 09:42:40;;;;;;;;;;;20.90;69.00;;;;;;5021812;28;88675;-46
2021/08/29 09:45:05;;;;;;;;;;;20.90;69.10;;;;;;5021933;28;87170;-46
2021/08/29 09:47:31;;;;;;;;;;;20.90;68.90;;;;;;5023546;28;87381;-46
2021/08/29 09:49:59;;;;;;;;;;;21.00;69.00;;;;;;5021751;28;88261;-46
2021/08/29 09:52:25;;;;;;;;;;;21.00;68.70;;;;;;5022449;28;87119;-46
2021/08/29 09:54:52;;;;;;;;;;;20.90;68.80;;;;;;5021267;28;88642;-47
2021/08/29 09:57:19;;;;;;;;;;;20.90;69.30;;;;;;5021234;28;87805;-47
2021/08/29 09:59:49;;;;;;;;;;;20.90;69.30;;;;;;5022767;28;87149;-47
2021/08/29 10:02:23;;;;;;;;;;;21.00;69.00;;;;;;5020453;28;88038;-47
2021/08/29 10:05:08;;;;;;;;;;;21.00;69.00;;;;;;5022262;28;88237;-46
2021/08/29 10:07:35;;;;;;;;;;;21.00;68.70;;;;;;5019032;28;87605;-47
2021/08/29 10:10:19;;;;;;;;;;;20.90;68.80;;;;;;5018237;28;87141;-48
2021/08/29 10:12:45;;;;;;;;;;;21.00;68.80;;;;;;5022584;28;86394;-47
2021/08/29 10:15:11;;;;;;;;;;;20.90;68.50;;;;;;5022867;28;87125;-46
2021/08/29 10:17:39;;;;;;;;;;;20.90;68.70;;;;;;5021878;28;88119;-47
2021/08/29 10:20:06;;;;;;;;;;;20.90;68.90;;;;;;5020038;28;88064;-46
2021/08/29 10:22:33;;;;;;;;;;;20.90;69.10;;;;;;5022981;28;90514;-48
2021/08/29 10:25:00;;;;;;;;;;;20.90;69.40;;;;;;5018721;28;87149;-47
2021/08/29 10:27:25;;;;;;;;;;;21.00;68.80;;;;;;5018153;28;88804;-48
2021/08/29 10:29:51;;;;;;;;;;;21.00;68.60;;;;;;5018195;28;87243;-47
2021/08/29 10:32:29;;;;;;;;;;;21.00;68.70;;;;;;5019582;28;87158;-47
2021/08/29 10:34:54;;;;;;;;;;;21.00;68.90;;;;;;5018346;28;87903;-48
2021/08/29 10:37:21;;;;;;;;;;;21.00;69.20;;;;;;5019105;28;87853;-47
2021/08/29 10:39:49;;;;;;;;;;;21.00;68.80;;;;;;5019513;28;87110;-48
2021/08/29 10:42:14;;;;;;;;;;;21.00;68.90;;;;;;5019598;28;87625;-47
2021/08/29 10:44:40;;;;;;;;;;;21.00;68.60;;;;;;5020054;28;90429;-47
2021/08/29 10:47:06;;;;;;;;;;;21.00;68.80;;;;;;5019237;28;89841;-47
2021/08/29 10:49:33;;;;;;;;;;;21.10;68.70;;;;;;5019063;28;87994;-47
2021/08/29 10:51:59;;;;;;;;;;;21.10;68.40;;;;;;5018541;28;87204;-47
2021/08/29 10:54:24;;;;;;;;;;;21.10;68.50;;;;;;5019540;28;88426;-47
2021/08/29 10:56:50;;;;;;;;;;;21.10;68.60;;;;;;5020422;28;88543;-46
2021/08/29 10:59:21;;;;;;;;;;;21.10;68.30;;;;;;5019859;28;87118;-47
2021/08/29 11:02:05;;;;;;;;;;;21.00;68.50;;;;;;5019741;28;88084;-47
2021/08/29 11:04:33;;;;;;;;;;;21.00;68.30;;;;;;5019760;28;88088;-47
2021/08/29 11:07:02;;;;;;;;;;;21.10;68.50;;;;;;5023881;28;87149;-47
2021/08/29 11:09:34;;;;;;;;;;;21.10;68.20;;;;;;5018549;28;89382;-47
2021/08/29 11:11:59;;;;;;;;;;;21.10;68.40;;;;;;5021593;28;88019;-49
2021/08/29 11:14:53;;;;;;;;;;;21.10;68.40;;;;;;5018129;28;87981;-48
2021/08/29 11:17:20;;;;;;;;;;;21.20;68.30;;;;;;5021554;28;87762;-47
2021/08/29 11:19:46;;;;;;;;;;;21.10;68.10;;;;;;5020841;28;87177;-47
2021/08/29 11:22:15;;;;;;;;;;;21.20;68.20;;;;;;5020742;28;87385;-47
2021/08/29 11:24:55;;;;;;;;;;;21.10;68.50;;;;;;5017445;28;89590;-49
2021/08/29 11:27:36;;;;;;;;;;;21.10;68.20;;;;;;5023524;28;86494;-47
2021/08/29 11:30:02;;;;;;;;;;;21.10;69.00;;;;;;5020104;28;88423;-46
2021/08/29 11:32:33;;;;;;;;;;;21.20;69.60;;;;;;5021877;28;87203;-47
2021/08/29 11:35:02;;;;;;;;;;;21.10;69.30;;;;;;5020968;28;88102;-47
2021/08/29 11:37:28;;;;;;;;;;;21.20;68.70;;;;;;5017195;28;88131;-47
2021/08/29 11:40:00;;;;;;;;;;;21.10;68.50;;;;;;5019046;28;87163;-50
2021/08/29 11:42:27;;;;;;;;;;;21.20;68.40;;;;;;5017685;28;87505;-53
2021/08/29 11:44:53;;;;;;;;;;;21.20;72.70;;;;;;5016986;28;89310;-50
2021/08/29 11:47:19;;;;;;;;;;;21.30;74.30;;;;;;5018362;28;88861;-45
2021/08/29 11:49:51;;;;;;;;;;;21.20;73.80;;;;;;5020227;28;87144;-45
2021/08/29 11:52:24;;;;;;;;;;;21.30;73.70;;;;;;5018208;28;87921;-48
2021/08/29 11:55:01;;;;;;;;;;;21.30;73.20;;;;;;5020647;28;87134;-47
2021/08/29 11:57:27;;;;;;;;;;;21.40;73.80;;;;;;5019529;28;88554;-47
2021/08/29 12:00:04;;;;;;;;;;;21.40;74.30;;;;;;5019368;28;88124;-48
2021/08/29 12:02:41;;;;;;;;;;;21.40;73.80;;;;;;5018605;28;88982;-47
2021/08/29 12:05:10;;;;;;;;;;;21.40;73.20;;;;;;5020006;28;88838;-47
2021/08/29 12:07:37;;;;;;;;;;;21.40;73.30;;;;;;5017728;28;87130;-47
2021/08/29 12:10:03;;;;;;;;;;;21.40;73.00;;;;;;5017273;28;87474;-47
2021/08/29 12:12:29;;;;;;;;;;;21.40;72.40;;;;;;5019467;28;89543;-48
2021/08/29 12:14:55;;;;;;;;;;;21.40;72.50;;;;;;5017783;28;88723;-48
2021/08/29 12:17:21;;;;;;;;;;;21.40;72.40;;;;;;5017770;28;87446;-47
2021/08/29 12:19:50;;;;;;;;;;;21.30;71.90;;;;;;5018097;28;87165;-49
2021/08/29 12:22:16;;;;;;;;;;;21.40;71.70;;;;;;5020783;28;89005;-49
2021/08/29 12:24:42;;;;;;;;;;;21.30;71.80;;;;;;5019685;28;89046;-47
2021/08/29 12:27:08;;;;;;;;;;;21.30;71.30;;;;;;5019549;28;87222;-47
2021/08/29 12:29:52;;;;;;;;;;;21.40;70.70;;;;;;5016383;28;88856;-47
2021/08/29 12:32:18;;;;;;;;;;;21.40;70.90;;;;;;5019705;28;89770;-47
2021/08/29 12:34:54;;;;;;;;;;;21.40;70.60;;;;;;5023278;28;87163;-48
2021/08/29 12:37:20;;;;;;;;;;;21.40;70.30;;;;;;5019466;28;89440;-47
2021/08/29 12:39:55;;;;;;;;;;;21.40;70.30;;;;;;5019424;28;87244;-47
2021/08/29 12:42:21;;;;;;;;;;;21.40;70.30;;;;;;5018063;28;86419;-48
2021/08/29 12:44:47;;;;;;;;;;;21.40;70.10;;;;;;5016954;28;88294;-48
2021/08/29 12:47:13;;;;;;;;;;;21.40;70.00;;;;;;5017959;28;87102;-49
2021/08/29 12:49:39;;;;;;;;;;;21.40;70.00;;;;;;5017068;28;88165;-47
2021/08/29 12:52:06;;;;;;;;;;;21.40;69.90;;;;;;5019183;28;87728;-48
2021/08/29 12:54:32;;;;;;;;;;;21.40;70.40;;;;;;5017566;28;87281;-48
2021/08/29 12:56:58;;;;;;;;;;;21.40;71.00;;;;;;5020192;28;88086;-49
2021/08/29 12:59:26;;;;;;;;;;;21.40;71.70;;;;;;5018713;28;87165;-48
2021/08/29 13:01:57;;;;;;;;;;;21.40;72.50;;;;;;5020440;28;87122;-46
2021/08/29 13:04:30;;;;;;;;;;;21.50;73.50;;;;;;5019756;28;88454;-48
2021/08/29 13:07:01;;;;;;;;;;;21.50;73.10;;;;;;5015367;28;86409;-46
2021/08/29 13:09:27;;;;;;;;;;;21.60;72.90;;;;;;5017485;28;88699;-46
2021/08/29 13:11:53;;;;;;;;;;;21.50;72.40;;;;;;5015768;28;89289;-50
2021/08/29 13:14:28;;;;;;;;;;;21.60;72.30;;;;;;5016134;28;88635;-48
2021/08/29 13:16:54;;;;;;;;;;;21.50;72.70;;;;;;5020290;28;90065;-47
2021/08/29 13:19:25;;;;;;;;;;;21.60;72.50;;;;;;5018275;28;87222;-46
2021/08/29 13:21:58;;;;;;;;;;;21.50;72.10;;;;;;5018175;28;87444;-46
2021/08/29 13:24:27;;;;;;;;;;;21.50;72.20;;;;;;5016932;28;87156;-46
2021/08/29 13:26:54;;;;;;;;;;;21.50;71.90;;;;;;5019301;28;87119;-47
2021/08/29 13:29:20;;;;;;;;;;;21.50;71.60;;;;;;5018429;28;87565;-47
2021/08/29 13:31:47;;;;;;;;;;;21.50;71.50;;;;;;5019293;28;86545;-46
2021/08/29 13:34:13;;;;;;;;;;;21.50;71.40;;;;;;5018260;28;87109;-46
2021/08/29 13:36:47;;;;;;;;;;;21.50;71.20;;;;;;5018077;28;87138;-46
2021/08/29 13:39:14;;;;;;;;;;;21.50;71.20;;;;;;5019040;28;90418;-46
2021/08/29 13:41:40;;;;;;;;;;;21.50;71.40;;;;;;5019563;28;88565;-47
2021/08/29 13:44:06;;;;;;;;;;;21.50;71.20;;;;;;5019815;28;88290;-46
2021/08/29 13:46:31;;;;;;;;;;;21.60;71.40;;;;;;5016943;28;88612;-45
2021/08/29 13:48:57;;;;;;;;;;;21.60;71.10;;;;;;5015369;28;88628;-47
2021/08/29 13:51:22;;;;;;;;;;;21.60;71.00;;;;;;5015144;28;88259;-45
2021/08/29 13:53:52;;;;;;;;;;;21.60;71.00;;;;;;5015589;28;87929;-46
2021/08/29 13:56:18;;;;;;;;;;;21.60;70.90;;;;;;5017962;28;87574;-45
2021/08/29 13:58:44;;;;;;;;;;;21.60;71.00;;;;;;5017893;28;88167;-46
2021/08/29 14:01:09;;;;;;;;;;;21.60;71.00;;;;;;5023445;28;87257;-46
2021/08/29 14:03:35;;;;;;;;;;;21.70;71.20;;;;;;5021963;28;89173;-47
2021/08/29 14:06:00;;;;;;;;;;;21.70;71.20;;;;;;5022386;28;88152;-46
2021/08/29 14:08:26;;;;;;;;;;;21.70;71.10;;;;;;5020225;28;88049;-46
2021/08/29 14:10:51;;;;;;;;;;;21.70;72.80;;;;;;5019132;28;88992;-49
2021/08/29 14:13:17;;;;;;;;;;;21.70;73.60;;;;;;5019147;28;87139;-51
2021/08/29 14:15:43;;;;;;;;;;;21.80;72.90;;;;;;5019755;28;88858;-47